Time;durP1;ratioP1;P1;durP2;ratioP2;P2;SDS_P1;SDS_P2;PMS_P1;PMS_P2;Temp;Humidity;BMP_temperature;BMP_pressure;BME280_temperature;BME280_humidity;BME280_pressure;Samples;Min_cycle;Max_cycle;Signal;HPM_P1;HPM_P2
2021/12/13 00:00:15;;;;;;;160.18;53.25;;;10.50;99.90;;;;;;5088681;28;20550;-60
2021/12/13 00:02:56;;;;;;;153.38;52.10;;;10.50;99.90;;;;;;5083161;28;20039;-59
2021/12/13 00:05:38;;;;;;;159.63;52.33;;;10.50;99.90;;;;;;5073256;28;20029;-60
2021/12/13 00:08:08;;;;;;;160.98;51.55;;;10.50;99.90;;;;;;5082013;28;20048;-59
2021/12/13 00:10:59;;;;;;;137.55;50.75;;;10.50;99.90;;;;;;5076167;28;20058;-59
2021/12/13 00:13:54;;;;;;;148.95;52.08;;;10.50;99.90;;;;;;5073764;28;20427;-59
2021/12/13 00:16:33;;;;;;;144.00;52.45;;;10.50;99.90;;;;;;5082184;28;20383;-59
2021/12/13 00:19:11;;;;;;;158.80;55.15;;;10.40;99.90;;;;;;5073016;28;20037;-59
2021/12/13 00:21:47;;;;;;;144.23;50.50;;;10.40;99.90;;;;;;5082735;28;20072;-60
2021/12/13 00:24:31;;;;;;;154.07;49.83;;;10.40;99.90;;;;;;5072526;28;20386;-59
2021/12/13 00:27:04;;;;;;;155.90;51.17;;;10.40;99.90;;;;;;5082035;28;20403;-59
2021/12/13 00:29:45;;;;;;;154.50;53.83;;;10.40;99.90;;;;;;5069809;28;20049;-58
2021/12/13 00:32:22;;;;;;;137.63;48.33;;;10.40;99.90;;;;;;5070079;28;20040;-59
2021/12/13 00:34:55;;;;;;;160.90;50.42;;;10.40;99.90;;;;;;5069890;28;20421;-59
2021/12/13 00:37:44;;;;;;;138.18;48.90;;;10.40;99.90;;;;;;5072430;28;20036;-59
2021/12/13 00:40:20;;;;;;;128.60;44.92;;;10.40;99.90;;;;;;5074793;28;20079;-59
2021/12/13 00:42:53;;;;;;;140.50;46.85;;;10.40;99.90;;;;;;5069655;28;20063;-60
2021/12/13 00:45:23;;;;;;;106.93;41.40;;;10.40;99.90;;;;;;5069648;28;20079;-59
2021/12/13 00:47:50;;;;;;;113.28;40.33;;;10.40;99.90;;;;;;5071817;28;20041;-59
2021/12/13 00:50:21;;;;;;;107.82;42.03;;;10.40;99.90;;;;;;5069748;28;20082;-59
2021/12/13 00:52:49;;;;;;;106.57;40.58;;;10.40;99.90;;;;;;5073629;28;20068;-59
2021/12/13 00:55:21;;;;;;;88.72;37.05;;;10.40;99.90;;;;;;5089487;28;20094;-59
2021/12/13 00:58:04;;;;;;;95.75;39.97;;;10.50;99.90;;;;;;5086687;28;20024;-59
2021/12/13 01:00:36;;;;;;;97.70;40.08;;;10.50;99.90;;;;;;5089550;28;20048;-62
2021/12/13 01:03:09;;;;;;;104.78;40.35;;;10.50;99.90;;;;;;5087792;28;20036;-59
2021/12/13 01:05:56;;;;;;;86.55;36.45;;;10.50;99.90;;;;;;5089729;28;20044;-59
2021/12/13 01:08:51;;;;;;;97.32;38.25;;;10.50;99.90;;;;;;5085445;28;20040;-60
2021/12/13 01:11:20;;;;;;;92.25;38.05;;;10.50;99.90;;;;;;5087500;28;20048;-60
2021/12/13 01:13:49;;;;;;;90.85;34.75;;;10.50;99.90;;;;;;5070901;28;20033;-59
2021/12/13 01:16:53;;;;;;;79.45;34.33;;;10.50;99.90;;;;;;5069851;28;20040;-59
2021/12/13 01:19:49;;;;;;;89.57;32.92;;;10.50;99.90;;;;;;5074561;28;20116;-59
2021/12/13 01:25:22;;;;;;;70.53;30.77;;;10.50;99.90;;;;;;5092812;28;20032;-60
2021/12/13 01:28:01;;;;;;;75.18;33.90;;;10.50;99.90;;;;;;5079737;28;20064;-59
2021/12/13 01:30:34;;;;;;;77.22;32.53;;;10.50;99.90;;;;;;5075616;28;20075;-60
2021/12/13 01:33:02;;;;;;;80.60;32.80;;;10.50;99.90;;;;;;5072630;28;20072;-59
2021/12/13 01:35:31;;;;;;;70.28;32.63;;;10.50;99.90;;;;;;5065442;28;20485;-59
2021/12/13 01:38:03;;;;;;;81.53;35.28;;;10.50;99.90;;;;;;5081421;28;20032;-60
2021/12/13 01:40:35;;;;;;;74.13;32.45;;;10.50;99.90;;;;;;5074953;28;20070;-59
2021/12/13 01:43:14;;;;;;;82.53;34.65;;;10.50;99.90;;;;;;5089795;28;20067;-59
2021/12/13 01:45:43;;;;;;;89.63;37.05;;;10.50;99.90;;;;;;5092645;28;20116;-58
2021/12/13 01:48:17;;;;;;;82.30;35.05;;;10.50;99.90;;;;;;5083671;28;20048;-59
2021/12/13 01:50:48;;;;;;;97.82;36.50;;;10.50;99.90;;;;;;5079336;28;20125;-59
2021/12/13 01:53:16;;;;;;;86.28;35.47;;;10.50;99.90;;;;;;5082075;28;20032;-59
2021/12/13 01:55:46;;;;;;;82.85;38.05;;;10.50;99.90;;;;;;5072450;28;20047;-59
2021/12/13 02:01:22;;;;;;;82.57;34.03;;;10.50;99.90;;;;;;5073122;28;20504;-59
2021/12/13 02:03:59;;;;;;;81.80;35.42;;;10.50;99.90;;;;;;5088374;28;20073;-59
2021/12/13 02:06:35;;;;;;;82.45;33.75;;;10.60;99.90;;;;;;5090680;28;20074;-59
2021/12/13 02:09:20;;;;;;;75.50;34.97;;;10.50;99.90;;;;;;5085334;28;20052;-60
2021/12/13 02:11:53;;;;;;;74.28;31.30;;;10.50;99.90;;;;;;5073007;28;20036;-59
2021/12/13 02:14:24;;;;;;;67.55;28.63;;;10.50;99.90;;;;;;5073315;28;20117;-59
2021/12/13 02:19:46;;;;;;;62.28;29.33;;;10.50;99.90;;;;;;5091853;28;20068;-59
2021/12/13 02:22:32;;;;;;;75.75;32.25;;;10.50;99.90;;;;;;5066669;28;20048;-59
2021/12/13 02:25:21;;;;;;;60.50;30.13;;;10.50;99.90;;;;;;5075265;28;20075;-60
2021/12/13 02:27:58;;;;;;;64.03;30.65;;;10.50;99.90;;;;;;5067237;28;20466;-59
2021/12/13 02:30:40;;;;;;;67.88;30.70;;;10.50;99.90;;;;;;5071892;28;20036;-59
2021/12/13 02:33:09;;;;;;;58.75;29.70;;;10.50;99.90;;;;;;5071756;28;20079;-59
2021/12/13 02:35:39;;;;;;;65.93;30.90;;;10.50;99.90;;;;;;5071701;28;20040;-60
2021/12/13 02:38:09;;;;;;;63.15;30.42;;;10.50;99.90;;;;;;5073151;28;20086;-59
2021/12/13 02:40:35;;;;;;;65.88;31.70;;;10.50;99.90;;;;;;5081401;28;20055;-59
2021/12/13 02:43:02;;;;;;;58.97;32.55;;;10.50;99.90;;;;;;5072696;28;20032;-59
2021/12/13 02:45:32;;;;;;;65.10;30.88;;;10.50;99.90;;;;;;5073203;28;20044;-59
2021/12/13 02:48:23;;;;;;;57.47;29.70;;;10.50;99.90;;;;;;5058885;28;20040;-59
2021/12/13 02:51:08;;;;;;;57.55;31.02;;;10.40;99.90;;;;;;5071753;28;20044;-59
2021/12/13 02:53:52;;;;;;;46.10;26.50;;;10.40;99.90;;;;;;5082008;28;20047;-59
2021/12/13 02:56:23;;;;;;;48.28;27.52;;;10.40;99.90;;;;;;5072988;28;20039;-59
2021/12/13 02:58:55;;;;;;;52.45;29.40;;;10.40;99.90;;;;;;5071521;28;20111;-60
2021/12/13 03:01:31;;;;;;;47.97;29.70;;;10.40;99.90;;;;;;5089276;28;20416;-60
2021/12/13 03:04:05;;;;;;;46.75;28.15;;;10.40;99.90;;;;;;5089350;28;20098;-59
2021/12/13 03:06:35;;;;;;;46.30;25.60;;;10.40;99.90;;;;;;5081505;28;20569;-60
2021/12/13 03:09:12;;;;;;;46.72;26.42;;;10.40;99.90;;;;;;5071147;28;20509;-59
2021/12/13 03:11:39;;;;;;;42.40;26.38;;;10.40;99.90;;;;;;5085258;28;20058;-60
2021/12/13 03:14:10;;;;;;;37.47;25.25;;;10.40;99.90;;;;;;5090727;28;20028;-61
2021/12/13 03:16:53;;;;;;;33.92;22.75;;;10.40;99.90;;;;;;5094487;28;20047;-59
2021/12/13 03:19:27;;;;;;;29.55;19.05;;;10.40;99.90;;;;;;5089896;28;20100;-59
2021/12/13 03:22:30;;;;;;;32.22;18.48;;;10.40;99.90;;;;;;5070435;28;20044;-59
2021/12/13 03:25:20;;;;;;;29.95;18.23;;;10.30;99.90;;;;;;5075493;28;20045;-59
2021/12/13 03:28:01;;;;;;;27.08;17.45;;;10.30;99.90;;;;;;5062518;28;20068;-59
2021/12/13 03:30:32;;;;;;;25.90;17.48;;;10.30;99.90;;;;;;5077282;28;20044;-59
2021/12/13 03:33:10;;;;;;;27.73;17.48;;;10.30;99.90;;;;;;5087470;28;20485;-59
2021/12/13 03:35:35;;;;;;;21.17;15.18;;;10.30;99.90;;;;;;5070761;28;20028;-60
2021/12/13 03:38:07;;;;;;;19.80;13.03;;;10.30;99.90;;;;;;5078162;28;20039;-60
2021/12/13 03:40:33;;;;;;;15.55;11.70;;;10.30;99.90;;;;;;5082676;28;20047;-59
2021/12/13 03:43:05;;;;;;;19.73;13.38;;;10.20;99.90;;;;;;5070349;28;20041;-60
2021/12/13 03:45:39;;;;;;;15.18;10.88;;;10.20;99.90;;;;;;5070337;28;20512;-59
2021/12/13 03:48:08;;;;;;;17.67;11.68;;;10.20;99.90;;;;;;5070901;28;20615;-59
2021/12/13 03:50:40;;;;;;;16.33;11.02;;;10.20;99.90;;;;;;5071750;28;20046;-59
2021/12/13 03:53:15;;;;;;;17.77;10.45;;;10.20;99.90;;;;;;5070188;28;20036;-60
2021/12/13 03:55:45;;;;;;;16.25;10.55;;;10.20;99.90;;;;;;5069416;28;20028;-60
2021/12/13 03:58:13;;;;;;;14.25;9.20;;;10.10;99.90;;;;;;5071199;28;20029;-60
2021/12/13 04:00:48;;;;;;;15.73;8.77;;;10.10;99.90;;;;;;5076009;28;20037;-59
2021/12/13 04:03:17;;;;;;;14.35;7.82;;;10.10;99.90;;;;;;5070321;28;20501;-59
2021/12/13 04:05:44;;;;;;;19.40;8.65;;;10.10;99.90;;;;;;5070533;28;20455;-59
2021/12/13 04:08:11;;;;;;;;;;;10.00;99.90;;;;;;5071709;28;20485;-60
2021/12/13 04:10:45;;;;;;;13.23;7.53;;;10.00;99.90;;;;;;5069791;28;19974;-59
2021/12/13 04:13:15;;;;;;;16.27;8.45;;;10.00;99.90;;;;;;5077939;28;20303;-59
2021/12/13 04:16:15;;;;;;;12.75;8.07;;;10.00;99.90;;;;;;5074387;28;20044;-59
2021/12/13 04:19:10;;;;;;;17.10;8.30;;;10.00;99.90;;;;;;5071213;28;20036;-59
2021/12/13 04:21:55;;;;;;;9.20;7.60;;;10.00;99.90;;;;;;5072002;28;20044;-59
2021/12/13 04:24:33;;;;;;;13.63;7.85;;;9.90;99.90;;;;;;5080518;28;20037;-58
2021/12/13 04:27:04;;;;;;;9.23;7.65;;;9.90;99.90;;;;;;5070496;28;20040;-59
2021/12/13 04:29:34;;;;;;;10.52;7.85;;;9.90;99.90;;;;;;5069421;28;20040;-59
2021/12/13 04:32:15;;;;;;;10.20;8.30;;;9.90;99.90;;;;;;5070155;28;20045;-59
2021/12/13 04:34:42;;;;;;;15.77;8.27;;;9.90;99.90;;;;;;5069877;28;20410;-59
2021/12/13 04:37:13;;;;;;;13.27;7.45;;;9.90;99.90;;;;;;5071271;28;20062;-59
2021/12/13 04:39:41;;;;;;;11.55;8.10;;;9.90;99.90;;;;;;5070568;28;20556;-59
2021/12/13 04:42:11;;;;;;;13.52;9.30;;;9.90;99.90;;;;;;5071328;28;20076;-58
2021/12/13 04:45:03;;;;;;;16.52;10.70;;;9.90;99.90;;;;;;5083924;28;20043;-59
2021/12/13 04:47:41;;;;;;;16.70;10.30;;;9.80;99.90;;;;;;5080599;28;20052;-59
2021/12/13 04:50:17;;;;;;;15.77;11.13;;;9.80;99.90;;;;;;5087883;28;20404;-59
2021/12/13 04:52:44;;;;;;;17.52;12.25;;;9.80;99.90;;;;;;5086066;28;20040;-59
2021/12/13 04:55:17;;;;;;;23.30;13.07;;;9.70;99.90;;;;;;5089403;28;20119;-60
2021/12/13 04:57:43;;;;;;;21.67;11.98;;;9.70;99.90;;;;;;5078529;28;20386;-59
2021/12/13 05:00:14;;;;;;;;;;;9.70;99.90;;;;;;5074012;28;20044;-59
2021/12/13 05:02:50;;;;;;;17.38;12.02;;;9.70;99.90;;;;;;5074399;28;20367;-59
2021/12/13 05:05:16;;;;;;;19.80;11.93;;;9.60;99.90;;;;;;5084209;28;20132;-59
2021/12/13 05:07:45;;;;;;;24.55;12.65;;;9.60;99.90;;;;;;5090275;28;20064;-59
2021/12/13 05:10:13;;;;;;;22.08;13.85;;;9.60;99.90;;;;;;5092013;28;20438;-62
2021/12/13 05:12:39;;;;;;;22.90;14.63;;;9.60;99.90;;;;;;5091112;28;20027;-62
2021/12/13 05:15:22;;;;;;;22.25;15.25;;;9.60;99.90;;;;;;5082664;28;20032;-60
2021/12/13 05:17:49;;;;;;;27.83;15.70;;;9.60;99.90;;;;;;5092587;28;20511;-62
2021/12/13 05:20:27;;;;;;;30.55;16.63;;;9.60;99.90;;;;;;5073682;28;20048;-61
2021/12/13 05:22:58;;;;;;;26.63;16.73;;;9.60;99.90;;;;;;5085472;28;20048;-62
2021/12/13 05:25:34;;;;;;;26.23;16.40;;;9.60;99.90;;;;;;5091725;28;20051;-62
2021/12/13 05:28:36;;;;;;;24.58;17.52;;;9.60;99.90;;;;;;5083932;28;20052;-62
2021/12/13 05:31:08;;;;;;;29.52;17.40;;;9.60;99.90;;;;;;5082128;28;20040;-61
2021/12/13 05:33:37;;;;;;;27.40;17.58;;;9.60;99.90;;;;;;5076267;28;20477;-62
2021/12/13 05:36:08;;;;;;;26.60;17.45;;;9.60;99.90;;;;;;5073917;28;20489;-62
2021/12/13 05:38:42;;;;;;;27.75;18.40;;;9.60;99.90;;;;;;5073094;28;20459;-62
2021/12/13 05:41:21;;;;;;;36.85;18.85;;;9.60;99.90;;;;;;5090165;28;20430;-62
2021/12/13 05:44:17;;;;;;;29.77;18.63;;;9.60;99.90;;;;;;5090348;28;20047;-62
2021/12/13 05:46:47;;;;;;;31.58;20.92;;;9.60;99.90;;;;;;5073710;28;20051;-62
2021/12/13 05:49:30;;;;;;;32.70;20.45;;;9.60;99.90;;;;;;5092514;28;20083;-61
2021/12/13 05:52:10;;;;;;;32.30;21.42;;;9.60;99.90;;;;;;5091215;28;20126;-61
2021/12/13 05:54:41;;;;;;;32.97;21.70;;;9.60;99.90;;;;;;5090366;28;20032;-61
2021/12/13 05:57:22;;;;;;;35.03;22.40;;;9.60;99.90;;;;;;5084677;28;20439;-62
2021/12/13 05:59:50;;;;;;;34.30;22.60;;;9.60;99.90;;;;;;5078699;28;20032;-62
2021/12/13 06:02:46;;;;;;;38.53;23.77;;;9.60;99.90;;;;;;5092067;28;20048;-62
2021/12/13 06:05:29;;;;;;;38.53;24.13;;;9.60;99.90;;;;;;5092232;28;20396;-62
2021/12/13 06:08:03;;;;;;;43.25;24.30;;;9.60;99.90;;;;;;5082239;28;20038;-62
2021/12/13 06:10:51;;;;;;;40.58;24.50;;;9.60;99.90;;;;;;5071652;28;20048;-62
2021/12/13 06:13:46;;;;;;;42.85;25.50;;;9.60;99.90;;;;;;5074956;28;20119;-62
2021/12/13 06:16:24;;;;;;;39.60;25.52;;;9.60;99.90;;;;;;5060913;28;20048;-62
2021/12/13 06:19:06;;;;;;;39.60;25.50;;;9.60;99.90;;;;;;5080996;28;20032;-60
2021/12/13 06:21:40;;;;;;;42.30;26.05;;;9.60;99.90;;;;;;5095368;28;20079;-59
2021/12/13 06:24:07;;;;;;;40.30;25.75;;;9.60;99.90;;;;;;5091877;28;20056;-59
2021/12/13 06:26:35;;;;;;;44.80;28.50;;;9.60;99.90;;;;;;5089849;28;20500;-59
2021/12/13 06:29:03;;;;;;;49.55;28.02;;;9.60;99.90;;;;;;5081681;28;20032;-59
2021/12/13 06:31:42;;;;;;;41.55;27.27;;;9.60;99.90;;;;;;5071951;28;20037;-58
2021/12/13 06:34:11;;;;;;;43.17;27.30;;;9.60;99.90;;;;;;5078305;28;20066;-59
2021/12/13 06:36:52;;;;;;;46.03;27.73;;;9.60;99.90;;;;;;5075635;28;20036;-59
2021/12/13 06:39:29;;;;;;;42.25;27.45;;;9.50;99.90;;;;;;5081362;28;20540;-59
2021/12/13 06:42:03;;;;;;;44.95;28.70;;;9.50;99.90;;;;;;5062382;28;20040;-59
2021/12/13 06:44:41;;;;;;;45.55;30.17;;;9.50;99.90;;;;;;5085078;28;20038;-59
2021/12/13 06:47:11;;;;;;;46.05;30.73;;;9.50;99.90;;;;;;5081625;28;20082;-59
2021/12/13 06:49:48;;;;;;;45.78;30.90;;;9.60;99.90;;;;;;5077519;28;20459;-59
2021/12/13 06:52:13;;;;;;;49.83;31.37;;;9.50;99.90;;;;;;5078507;28;20032;-59
2021/12/13 06:54:47;;;;;;;48.23;31.47;;;9.50;99.90;;;;;;5081221;28;20097;-62
2021/12/13 06:57:20;;;;;;;46.83;32.45;;;9.50;99.90;;;;;;5079820;28;20039;-62
2021/12/13 06:59:49;;;;;;;55.67;32.38;;;9.50;99.90;;;;;;5077255;28;20447;-62
2021/12/13 07:02:21;;;;;;;48.97;32.63;;;9.60;99.90;;;;;;5071123;28;20044;-59
2021/12/13 07:04:55;;;;;;;50.90;31.40;;;9.50;99.90;;;;;;5071572;28;20043;-59
2021/12/13 07:07:26;;;;;;;51.30;31.77;;;9.50;99.90;;;;;;5071355;28;20079;-59
2021/12/13 07:09:55;;;;;;;48.05;32.83;;;9.50;99.90;;;;;;5070818;28;20443;-59
2021/12/13 07:12:23;;;;;;;46.38;30.92;;;9.50;99.90;;;;;;5062223;28;20036;-59
2021/12/13 07:14:49;;;;;;;50.05;31.90;;;9.60;99.90;;;;;;5060858;28;20029;-59
2021/12/13 07:17:26;;;;;;;50.00;32.67;;;9.50;99.90;;;;;;5070935;28;20107;-59
2021/12/13 07:19:52;;;;;;;52.87;32.30;;;9.50;99.90;;;;;;5064852;28;20515;-59
2021/12/13 07:22:23;;;;;;;51.38;33.35;;;9.50;99.90;;;;;;5070349;28;20279;-59
2021/12/13 07:25:10;;;;;;;48.70;34.05;;;9.60;99.90;;;;;;5070930;28;20083;-59
2021/12/13 07:27:46;;;;;;;46.30;30.52;;;9.60;99.90;;;;;;5071177;28;20050;-59
2021/12/13 07:30:21;;;;;;;49.08;32.75;;;9.60;99.90;;;;;;5074623;28;20036;-59
2021/12/13 07:32:58;;;;;;;45.05;30.80;;;9.60;99.90;;;;;;5070128;28;20540;-59
2021/12/13 07:35:38;;;;;;;43.38;30.65;;;9.60;99.90;;;;;;5070737;28;20045;-59
2021/12/13 07:38:20;;;;;;;47.30;32.20;;;9.60;99.90;;;;;;5071003;28;20047;-59
2021/12/13 07:40:58;;;;;;;43.47;29.98;;;9.60;99.90;;;;;;5070960;28;20110;-59
2021/12/13 07:43:26;;;;;;;44.55;31.50;;;9.60;99.90;;;;;;5069198;28;20123;-59
2021/12/13 07:45:58;;;;;;;48.65;32.00;;;9.50;99.90;;;;;;5069481;28;20443;-59
2021/12/13 07:48:32;;;;;;;44.25;29.58;;;9.50;99.90;;;;;;5070879;28;20082;-62
2021/12/13 07:51:25;;;;;;;43.60;30.25;;;9.50;99.90;;;;;;5070342;28;20036;-62
2021/12/13 07:53:56;;;;;;;49.83;30.05;;;9.50;99.90;;;;;;5070385;28;20571;-62
2021/12/13 07:56:36;;;;;;;40.50;29.73;;;9.50;99.90;;;;;;5070972;28;20048;-59
2021/12/13 07:59:13;;;;;;;46.38;30.08;;;9.50;99.90;;;;;;5069658;28;20260;-60
2021/12/13 08:01:51;;;;;;;42.22;29.60;;;9.40;99.90;;;;;;5077626;28;20405;-60
2021/12/13 08:04:39;;;;;;;41.28;28.13;;;9.40;99.90;;;;;;5080564;28;20301;-60
2021/12/13 08:07:15;;;;;;;45.38;30.70;;;9.50;99.90;;;;;;5075590;28;20150;-60
2021/12/13 08:09:54;;;;;;;43.30;27.58;;;9.50;99.90;;;;;;5080905;28;20047;-59
2021/12/13 08:12:37;;;;;;;45.13;29.10;;;9.50;99.90;;;;;;5076703;28;20582;-61
2021/12/13 08:15:12;;;;;;;38.75;27.77;;;9.50;99.90;;;;;;5089278;28;20068;-61
2021/12/13 08:18:03;;;;;;;41.05;27.73;;;9.50;99.90;;;;;;5087997;28;20479;-61
2021/12/13 08:20:41;;;;;;;43.38;30.73;;;9.50;99.90;;;;;;5087898;28;20131;-60
2021/12/13 08:23:15;;;;;;;42.05;28.80;;;9.50;99.90;;;;;;5058599;28;20070;-61
2021/12/13 08:25:41;;;;;;;42.50;27.63;;;9.50;99.90;;;;;;5074296;28;20032;-59
2021/12/13 08:28:15;;;;;;;42.83;30.02;;;9.50;99.90;;;;;;5070083;28;20048;-58
2021/12/13 08:30:56;;;;;;;44.50;28.10;;;9.40;99.90;;;;;;5077941;28;20541;-58
2021/12/13 08:33:36;;;;;;;44.22;28.08;;;9.50;99.90;;;;;;5088151;28;20043;-59
2021/12/13 08:36:15;;;;;;;41.88;28.05;;;9.40;99.90;;;;;;5089740;28;20443;-59
2021/12/13 08:38:48;;;;;;;42.30;27.70;;;9.50;99.90;;;;;;5087106;28;20032;-60
2021/12/13 08:41:16;;;;;;;39.22;27.15;;;9.40;99.90;;;;;;5059254;28;20044;-59
2021/12/13 08:43:48;;;;;;;40.30;27.27;;;9.50;99.90;;;;;;5084410;28;20148;-56
2021/12/13 08:46:39;;;;;;;36.80;26.17;;;9.40;99.90;;;;;;5088533;28;20051;-59
2021/12/13 08:49:17;;;;;;;40.72;26.15;;;9.50;99.90;;;;;;5089964;28;20036;-59
2021/12/13 08:52:07;;;;;;;39.03;27.10;;;9.40;99.90;;;;;;5073603;28;20048;-57
2021/12/13 08:54:47;;;;;;;36.97;25.48;;;9.50;99.90;;;;;;5061566;28;20066;-58
2021/12/13 08:57:43;;;;;;;42.42;26.52;;;9.50;99.90;;;;;;5078057;28;20492;-60
2021/12/13 09:00:46;;;;;;;37.42;26.15;;;9.40;99.90;;;;;;5047296;28;20377;-60
2021/12/13 09:03:22;;;;;;;36.95;25.20;;;9.50;99.90;;;;;;4987593;28;20121;-59
2021/12/13 09:06:11;;;;;;;38.97;26.27;;;9.50;99.90;;;;;;5047507;28;20051;-61
2021/12/13 09:08:54;;;;;;;40.85;25.42;;;9.50;99.90;;;;;;5069403;28;20115;-61
2021/12/13 09:11:59;;;;;;;37.03;24.80;;;9.50;99.90;;;;;;5070719;28;20072;-61
2021/12/13 09:14:39;;;;;;;35.83;24.58;;;9.50;99.90;;;;;;5000022;28;20038;-61
2021/12/13 09:17:07;;;;;;;37.13;25.38;;;9.50;99.90;;;;;;4989427;28;20045;-62
2021/12/13 09:19:49;;;;;;;37.67;24.33;;;9.50;99.90;;;;;;5033000;28;20476;-62
2021/12/13 09:22:35;;;;;;;37.88;24.58;;;9.50;99.90;;;;;;5076503;28;20037;-62
2021/12/13 09:25:16;;;;;;;34.30;23.80;;;9.50;99.90;;;;;;5069360;28;20039;-62
2021/12/13 09:27:51;;;;;;;34.88;23.73;;;9.50;99.90;;;;;;5070492;28;20131;-62
2021/12/13 09:30:39;;;;;;;35.13;23.80;;;9.50;99.90;;;;;;5077415;28;20032;-62
2021/12/13 09:33:17;;;;;;;;;;;9.50;99.90;;;;;;5077976;28;20028;-62
2021/12/13 09:35:45;;;;;;;29.58;20.75;;;9.60;99.90;;;;;;5069162;28;19973;-62
2021/12/13 09:38:17;;;;;;;35.25;23.15;;;9.50;99.90;;;;;;5069620;28;20055;-62
2021/12/13 09:40:50;;;;;;;32.40;22.58;;;9.50;99.90;;;;;;5069501;28;20547;-62
2021/12/13 09:43:18;;;;;;;31.95;20.65;;;9.60;99.90;;;;;;5073985;28;20089;-62
2021/12/13 09:45:53;;;;;;;36.05;24.30;;;9.60;99.90;;;;;;5080669;28;20086;-62
2021/12/13 09:48:18;;;;;;;35.63;22.13;;;9.60;99.90;;;;;;5082465;28;20568;-62
2021/12/13 09:50:46;;;;;;;34.93;22.07;;;9.60;99.90;;;;;;5082517;28;20347;-62
2021/12/13 09:53:12;;;;;;;30.88;22.33;;;9.60;99.90;;;;;;5083098;28;20024;-62
2021/12/13 09:55:43;;;;;;;32.28;20.88;;;9.60;99.90;;;;;;5080305;28;20115;-62
2021/12/13 09:58:16;;;;;;;26.52;20.10;;;9.60;99.90;;;;;;5081033;28;20413;-62
2021/12/13 10:01:04;;;;;;;26.45;19.05;;;9.60;99.90;;;;;;5080428;28;20074;-63
2021/12/13 10:03:43;;;;;;;30.35;20.52;;;9.60;99.90;;;;;;5083564;28;20050;-63
2021/12/13 10:06:10;;;;;;;31.30;21.02;;;9.60;99.90;;;;;;5081876;28;20068;-63
2021/12/13 10:08:46;;;;;;;28.73;19.35;;;9.60;99.90;;;;;;5078108;28;20071;-63
2021/12/13 10:11:17;;;;;;;34.80;20.85;;;9.60;99.90;;;;;;5077050;28;20129;-63
2021/12/13 10:13:44;;;;;;;34.15;19.95;;;9.70;99.90;;;;;;5068297;28;20109;-63
2021/12/13 10:16:15;;;;;;;28.52;19.75;;;9.70;99.90;;;;;;5087524;28;20157;-62
2021/12/13 10:18:44;;;;;;;32.38;20.48;;;9.70;99.90;;;;;;5071111;28;20451;-63
2021/12/13 10:21:24;;;;;;;24.67;17.85;;;9.70;99.90;;;;;;5068782;28;20048;-62
2021/12/13 10:23:54;;;;;;;29.23;20.67;;;9.60;99.90;;;;;;5085659;28;20047;-63
2021/12/13 10:26:21;;;;;;;26.98;18.13;;;9.60;99.90;;;;;;5060105;28;20239;-62
2021/12/13 10:28:54;;;;;;;27.90;18.45;;;9.70;99.90;;;;;;5068040;28;20040;-63
2021/12/13 10:31:29;;;;;;;30.58;19.55;;;9.60;99.90;;;;;;5087358;28;20043;-63
2021/12/13 10:33:56;;;;;;;28.27;18.55;;;9.70;99.90;;;;;;5075273;28;20050;-62
2021/12/13 10:36:22;;;;;;;24.95;18.00;;;9.70;99.90;;;;;;5071940;28;20071;-63
2021/12/13 10:38:50;;;;;;;;;;;9.70;99.90;;;;;;5071441;28;20081;-62
2021/12/13 10:41:21;;;;;;;25.20;17.50;;;9.60;99.90;;;;;;5083200;28;20313;-62
2021/12/13 10:43:52;;;;;;;31.55;19.95;;;9.70;99.90;;;;;;5079166;28;20089;-63
2021/12/13 10:46:23;;;;;;;36.35;19.67;;;9.70;99.90;;;;;;5090994;28;20042;-62
2021/12/13 10:48:56;;;;;;;27.52;19.63;;;9.70;99.90;;;;;;5080041;28;20056;-62
2021/12/13 10:51:27;;;;;;;27.65;17.15;;;9.70;99.90;;;;;;5071029;28;20044;-62
2021/12/13 10:53:55;;;;;;;28.33;20.48;;;9.70;99.90;;;;;;5075398;28;20060;-63
2021/12/13 10:56:34;;;;;;;26.58;17.48;;;9.70;99.90;;;;;;5070244;28;20059;-63
2021/12/13 10:59:04;;;;;;;26.17;17.75;;;9.70;99.90;;;;;;5081192;28;20036;-62
2021/12/13 11:01:36;;;;;;;21.67;17.42;;;9.70;99.90;;;;;;5072694;28;20044;-62
2021/12/13 11:04:06;;;;;;;27.77;18.63;;;9.70;99.90;;;;;;5083103;28;20047;-62
2021/12/13 11:06:35;;;;;;;25.83;17.50;;;9.70;99.90;;;;;;5082408;28;20523;-62
2021/12/13 11:09:03;;;;;;;25.83;18.15;;;9.70;99.90;;;;;;5073934;28;20036;-63
2021/12/13 11:11:41;;;;;;;26.58;18.50;;;9.70;99.90;;;;;;5079670;28;20036;-62
2021/12/13 11:14:10;;;;;;;24.23;16.73;;;9.70;99.90;;;;;;5070794;28;20037;-62
2021/12/13 11:16:41;;;;;;;27.35;17.63;;;9.70;99.90;;;;;;5070890;28;20519;-62
2021/12/13 11:19:12;;;;;;;23.58;17.50;;;9.70;99.90;;;;;;5081817;28;20039;-63
2021/12/13 11:21:40;;;;;;;24.73;17.92;;;9.70;99.90;;;;;;5078788;28;20108;-62
2021/12/13 11:24:09;;;;;;;29.17;18.17;;;9.70;99.90;;;;;;5088820;28;20489;-62
2021/12/13 11:26:39;;;;;;;23.08;16.88;;;9.70;99.90;;;;;;5090790;28;20040;-63
2021/12/13 11:29:07;;;;;;;25.70;16.65;;;9.70;99.90;;;;;;5090211;28;20349;-62
2021/12/13 11:31:33;;;;;;;27.25;18.27;;;9.70;99.90;;;;;;5089477;28;20048;-62
2021/12/13 11:33:59;;;;;;;23.67;18.33;;;9.70;99.90;;;;;;5089039;28;20046;-62
2021/12/13 11:37:01;;;;;;;26.55;17.23;;;9.70;99.90;;;;;;5087768;28;20386;-63
2021/12/13 11:39:41;;;;;;;29.70;18.08;;;9.70;99.90;;;;;;5089961;28;20039;-62
2021/12/13 11:42:24;;;;;;;26.77;16.92;;;9.70;99.90;;;;;;5088775;28;20040;-63
2021/12/13 11:45:12;;;;;;;26.20;17.05;;;9.70;99.90;;;;;;5086509;28;20036;-62
2021/12/13 11:47:40;;;;;;;23.45;16.77;;;9.70;99.90;;;;;;5055494;28;20055;-63
2021/12/13 11:50:43;;;;;;;24.65;16.63;;;9.70;99.90;;;;;;5079708;28;20428;-62
2021/12/13 11:53:47;;;;;;;23.85;16.80;;;9.70;99.90;;;;;;5086786;28;20036;-62
2021/12/13 11:56:43;;;;;;;27.55;17.25;;;9.70;99.90;;;;;;5089796;28;20515;-63
2021/12/13 11:59:49;;;;;;;22.55;16.85;;;9.70;99.90;;;;;;5090234;28;20129;-63
2021/12/13 12:02:44;;;;;;;25.35;16.30;;;9.70;99.90;;;;;;5088708;28;20115;-62
2021/12/13 12:05:41;;;;;;;25.15;16.85;;;9.70;99.90;;;;;;5073708;28;20051;-63
2021/12/13 12:08:25;;;;;;;21.35;16.08;;;9.70;99.90;;;;;;5071266;28;20051;-62
2021/12/13 12:11:02;;;;;;;21.27;16.52;;;9.80;99.90;;;;;;5076489;28;20071;-62
2021/12/13 12:13:36;;;;;;;21.77;16.30;;;9.80;99.90;;;;;;5071672;28;20089;-62
2021/12/13 12:16:04;;;;;;;25.13;17.00;;;9.80;99.90;;;;;;5078042;28;20298;-62
2021/12/13 12:18:34;;;;;;;27.52;16.25;;;9.80;99.90;;;;;;5079118;28;20094;-62
2021/12/13 12:21:45;;;;;;;24.80;16.42;;;9.70;99.90;;;;;;5070581;28;20036;-62
2021/12/13 12:24:24;;;;;;;27.63;16.20;;;9.70;99.90;;;;;;5061747;28;20052;-62
2021/12/13 12:26:54;;;;;;;24.00;16.95;;;9.80;99.90;;;;;;5089684;28;20044;-62
2021/12/13 12:29:44;;;;;;;21.70;15.18;;;9.80;99.90;;;;;;5089902;28;20115;-62
2021/12/13 12:32:16;;;;;;;23.17;15.88;;;9.70;99.90;;;;;;5089516;28;20040;-62
2021/12/13 12:34:55;;;;;;;19.65;14.50;;;9.70;99.90;;;;;;5081907;28;20035;-62
2021/12/13 12:37:54;;;;;;;20.65;14.35;;;9.80;99.90;;;;;;5070104;28;20386;-62
2021/12/13 12:40:49;;;;;;;24.50;16.33;;;9.80;99.90;;;;;;5068538;28;20037;-62
2021/12/13 12:43:20;;;;;;;23.63;16.08;;;9.80;99.90;;;;;;5068904;28;20051;-62
2021/12/13 12:45:58;;;;;;;24.77;16.33;;;9.80;99.90;;;;;;5081394;28;20070;-62
2021/12/13 12:48:37;;;;;;;26.05;15.98;;;9.80;99.90;;;;;;5089701;28;20032;-62
2021/12/13 12:51:17;;;;;;;23.27;15.23;;;9.80;99.90;;;;;;5089582;28;20424;-62
2021/12/13 12:53:46;;;;;;;22.23;15.68;;;9.80;99.90;;;;;;5084146;28;20164;-62
2021/12/13 12:56:11;;;;;;;22.23;14.00;;;9.80;99.90;;;;;;5077173;28;20503;-62
2021/12/13 12:59:08;;;;;;;21.17;14.57;;;9.80;99.90;;;;;;5088414;28;20069;-62
2021/12/13 13:01:44;;;;;;;23.80;14.48;;;9.80;99.90;;;;;;5072839;28;20044;-62
2021/12/13 13:04:10;;;;;;;20.43;15.00;;;9.80;99.90;;;;;;5089413;28;20044;-62
2021/12/13 13:06:46;;;;;;;19.87;14.17;;;9.80;99.90;;;;;;5090358;28;20037;-62
2021/12/13 13:09:12;;;;;;;26.33;15.00;;;9.80;99.90;;;;;;5089684;28;20093;-62
2021/12/13 13:11:38;;;;;;;20.27;14.85;;;9.80;99.90;;;;;;5088652;28;20119;-62
2021/12/13 13:14:13;;;;;;;22.15;14.65;;;9.80;99.90;;;;;;5089567;28;20040;-62
2021/12/13 13:16:46;;;;;;;21.30;15.00;;;9.80;99.90;;;;;;5089830;28;20051;-62
2021/12/13 13:19:43;;;;;;;20.30;14.50;;;9.80;99.90;;;;;;5090445;28;20522;-62
2021/12/13 13:22:17;;;;;;;20.42;14.63;;;9.80;99.90;;;;;;5093762;28;20496;-62
2021/12/13 13:24:46;;;;;;;19.23;13.95;;;9.80;99.90;;;;;;5092361;28;20099;-62
2021/12/13 13:27:13;;;;;;;22.55;13.57;;;9.80;99.90;;;;;;5094354;28;20108;-63
2021/12/13 13:29:40;;;;;;;21.98;13.88;;;9.80;99.90;;;;;;5093893;28;20146;-63